Time;durP1;ratioP1;P1;durP2;ratioP2;P2;SDS_P1;SDS_P2;PMS_P1;PMS_P2;Temp;Humidity;BMP_temperature;BMP_pressure;BME280_temperature;BME280_humidity;BME280_pressure;Samples;Min_cycle;Max_cycle;Signal;HPM_P1;HPM_P2
2021/08/10 00:02:13;;;;;;;;;;;15.50;99.90;;;;;;1975963;71;20127;-75
2021/08/10 00:04:40;;;;;;;;;;;15.50;99.90;;;;;;1976007;71;20186;-75
2021/08/10 00:07:06;;;;;;;;;;;15.50;99.90;;;;;;1970925;71;20431;-76
2021/08/10 00:09:33;;;;;;;;;;;15.50;99.90;;;;;;1973007;73;20174;-75
2021/08/10 00:12:00;;;;;;;;;;;15.50;99.90;;;;;;1952334;71;20193;-75
2021/08/10 00:14:31;;;;;;;;;;;15.50;99.90;;;;;;1947023;73;20121;-76
2021/08/10 00:16:55;;;;;;;;;;;15.40;99.90;;;;;;1946366;72;20224;-75
2021/08/10 00:19:22;;;;;;;;;;;15.50;99.90;;;;;;1972370;71;20225;-75
2021/08/10 00:21:49;;;;;;;;;;;15.50;99.90;;;;;;1973071;71;20193;-76
2021/08/10 00:24:16;;;;;;;;;;;15.50;99.90;;;;;;1972793;72;20224;-76
2021/08/10 00:26:43;;;;;;;;;;;15.50;99.90;;;;;;1973214;72;20212;-76
2021/08/10 00:29:09;;;;;;;;;;;15.40;99.90;;;;;;1973099;71;20182;-76
2021/08/10 00:31:36;;;;;;;;;;;15.30;99.90;;;;;;1972967;72;20218;-76
2021/08/10 00:34:03;;;;;;;;;;;15.30;99.90;;;;;;1972884;71;20197;-76
2021/08/10 00:36:30;;;;;;;;;;;15.40;99.90;;;;;;1972606;71;20219;-76
2021/08/10 00:38:57;;;;;;;;;;;15.30;99.90;;;;;;1973121;71;20502;-76
2021/08/10 00:41:24;;;;;;;;;;;15.30;99.90;;;;;;1973217;71;20463;-76
2021/08/10 00:43:51;;;;;;;;;;;15.40;99.90;;;;;;1973403;73;20194;-75
2021/08/10 00:46:18;;;;;;;;;;;15.30;99.90;;;;;;1973063;71;20186;-75
2021/08/10 00:48:45;;;;;;;;;;;15.40;99.90;;;;;;1972590;71;20451;-76
2021/08/10 00:51:12;;;;;;;;;;;15.40;99.90;;;;;;1972870;72;20284;-75
2021/08/10 00:53:40;;;;;;;;;;;15.30;99.90;;;;;;1972533;72;20262;-76
2021/08/10 00:56:08;;;;;;;;;;;15.30;99.90;;;;;;1972160;71;20163;-76
2021/08/10 00:58:35;;;;;;;;;;;15.40;99.90;;;;;;1973126;71;20173;-76
2021/08/10 01:01:02;;;;;;;;;;;15.30;99.90;;;;;;1972324;71;20162;-76
2021/08/10 01:03:28;;;;;;;;;;;15.30;99.90;;;;;;1972545;71;20420;-75
2021/08/10 01:05:55;;;;;;;;;;;15.30;99.90;;;;;;1993244;71;20149;-76
2021/08/10 01:08:42;;;;;;;;;;;15.30;99.90;;;;;;1966450;70;20157;-72
2021/08/10 01:11:10;;;;;;;;;;;15.40;99.90;;;;;;1917145;74;20170;-72
2021/08/10 01:13:45;;;;;;;;;;;15.40;99.90;;;;;;1901126;74;20175;-72
2021/08/10 01:16:13;;;;;;;;;;;15.40;99.90;;;;;;1913199;74;20172;-72
2021/08/10 01:18:44;;;;;;;;;;;15.30;99.90;;;;;;1940639;72;20114;-72
2021/08/10 01:21:13;;;;;;;;;;;15.20;99.90;;;;;;1942919;73;20168;-71
2021/08/10 01:23:40;;;;;;;;;;;15.10;99.90;;;;;;1952956;73;20174;-72
2021/08/10 01:26:08;;;;;;;;;;;15.20;99.90;;;;;;1974222;73;20162;-72
2021/08/10 01:28:37;;;;;;;;;;;15.10;99.90;;;;;;1948188;72;20158;-72
2021/08/10 01:31:09;;;;;;;;;;;15.10;99.90;;;;;;1975263;73;20870;-72
2021/08/10 01:33:37;;;;;;;;;;;15.20;99.90;;;;;;1946219;72;20150;-72
2021/08/10 01:36:04;;;;;;;;;;;15.20;99.90;;;;;;1959538;72;20118;-72
2021/08/10 01:38:32;;;;;;;;;;;15.00;99.90;;;;;;1940778;72;20210;-72
2021/08/10 01:40:59;;;;;;;;;;;15.10;99.90;;;;;;1975468;73;20143;-72
2021/08/10 01:43:28;;;;;;;;;;;15.00;99.90;;;;;;1963888;73;20126;-72
2021/08/10 01:45:55;;;;;;;;;;;15.00;99.90;;;;;;1960785;72;20479;-71
2021/08/10 01:48:23;;;;;;;;;;;14.90;99.90;;;;;;1950902;72;20437;-72
2021/08/10 01:50:50;;;;;;;;;;;14.90;99.90;;;;;;1953451;72;20164;-72
2021/08/10 01:53:17;;;;;;;;;;;14.80;99.90;;;;;;1944010;72;20173;-72
2021/08/10 01:55:44;;;;;;;;;;;14.80;99.90;;;;;;1907170;75;20206;-72
2021/08/10 01:58:12;;;;;;;;;;;15.00;99.90;;;;;;1906679;74;20455;-72
2021/08/10 02:00:39;;;;;;;;;;;15.00;99.90;;;;;;1954073;72;20459;-72
2021/08/10 02:03:10;;;;;;;;;;;15.00;99.90;;;;;;1965305;72;20490;-72
2021/08/10 02:05:38;;;;;;;;;;;15.10;99.90;;;;;;1961518;72;20170;-72
2021/08/10 02:08:05;;;;;;;;;;;15.10;99.90;;;;;;1973556;71;20181;-71
2021/08/10 02:10:32;;;;;;;;;;;15.10;99.90;;;;;;1969289;72;20175;-72
2021/08/10 02:12:58;;;;;;;;;;;15.00;99.90;;;;;;1973403;72;20182;-72
2021/08/10 02:15:25;;;;;;;;;;;15.00;99.90;;;;;;1972474;72;20202;-72
2021/08/10 02:17:52;;;;;;;;;;;14.90;99.90;;;;;;1938811;72;20232;-72
2021/08/10 02:20:19;;;;;;;;;;;15.00;99.90;;;;;;1952150;72;20162;-72
2021/08/10 02:22:47;;;;;;;;;;;15.10;99.90;;;;;;1952113;72;20165;-72
2021/08/10 02:25:16;;;;;;;;;;;15.10;99.90;;;;;;1949944;73;20165;-72
2021/08/10 02:27:44;;;;;;;;;;;15.00;99.90;;;;;;1940241;74;20279;-72
2021/08/10 02:30:12;;;;;;;;;;;15.00;99.90;;;;;;1955646;73;20216;-72
2021/08/10 02:32:41;;;;;;;;;;;15.10;99.90;;;;;;1939503;73;20200;-72
2021/08/10 02:35:08;;;;;;;;;;;15.00;99.90;;;;;;1946573;72;20476;-72
2021/08/10 02:37:36;;;;;;;;;;;15.10;99.90;;;;;;1944391;71;20259;-72
2021/08/10 02:40:04;;;;;;;;;;;15.20;99.90;;;;;;1958265;72;20168;-72
2021/08/10 02:42:31;;;;;;;;;;;15.00;99.90;;;;;;1944973;72;20198;-72
2021/08/10 02:45:00;;;;;;;;;;;15.00;99.90;;;;;;1975085;73;20193;-72
2021/08/10 02:47:30;;;;;;;;;;;15.00;99.90;;;;;;1960367;71;20267;-72
2021/08/10 02:49:57;;;;;;;;;;;15.00;99.90;;;;;;1974028;72;20227;-72
2021/08/10 02:52:24;;;;;;;;;;;15.00;99.90;;;;;;1955766;72;20179;-72
2021/08/10 02:54:51;;;;;;;;;;;15.00;99.90;;;;;;1954663;72;20111;-72
2021/08/10 02:57:28;;;;;;;;;;;14.90;99.90;;;;;;1975238;73;20158;-72
2021/08/10 02:59:56;;;;;;;;;;;15.00;99.90;;;;;;1963028;71;20141;-71
2021/08/10 03:02:25;;;;;;;;;;;14.90;99.90;;;;;;1958136;73;20118;-71
2021/08/10 03:04:53;;;;;;;;;;;15.00;99.90;;;;;;1958003;73;20309;-72
2021/08/10 03:07:22;;;;;;;;;;;14.90;99.90;;;;;;1935276;72;20451;-72
2021/08/10 03:09:49;;;;;;;;;;;14.90;99.90;;;;;;1972291;72;20200;-72
2021/08/10 03:12:17;;;;;;;;;;;15.00;99.90;;;;;;1940464;73;20207;-72
2021/08/10 03:14:45;;;;;;;;;;;15.00;99.90;;;;;;1940816;73;20161;-72
2021/08/10 03:17:12;;;;;;;;;;;14.90;99.90;;;;;;1920030;73;20181;-72
2021/08/10 03:19:40;;;;;;;;;;;14.80;99.90;;;;;;1940781;73;20164;-72
2021/08/10 03:22:08;;;;;;;;;;;14.80;99.90;;;;;;1939339;74;20121;-72
2021/08/10 03:24:35;;;;;;;;;;;14.90;99.90;;;;;;1954044;72;20161;-72
2021/08/10 03:27:04;;;;;;;;;;;14.80;99.90;;;;;;1950540;72;20287;-72
2021/08/10 03:29:31;;;;;;;;;;;14.90;99.90;;;;;;1956729;72;20177;-72
2021/08/10 03:31:58;;;;;;;;;;;15.00;99.90;;;;;;1957971;72;20852;-72
2021/08/10 03:34:25;;;;;;;;;;;14.90;99.90;;;;;;1974991;73;20204;-72
2021/08/10 03:36:53;;;;;;;;;;;14.90;99.90;;;;;;1969481;72;20210;-72
2021/08/10 03:39:20;;;;;;;;;;;14.90;99.90;;;;;;1967218;71;20164;-72
2021/08/10 03:41:47;;;;;;;;;;;15.00;99.90;;;;;;1970413;72;20464;-72
2021/08/10 03:44:15;;;;;;;;;;;15.00;99.90;;;;;;1970646;72;20165;-72
2021/08/10 03:46:43;;;;;;;;;;;15.00;99.90;;;;;;1966757;72;20154;-72
2021/08/10 03:49:10;;;;;;;;;;;15.00;99.90;;;;;;1946066;73;20156;-72
2021/08/10 03:51:37;;;;;;;;;;;15.00;99.90;;;;;;1967287;73;20180;-72
2021/08/10 03:54:06;;;;;;;;;;;15.00;99.90;;;;;;1955980;72;20161;-72
2021/08/10 03:56:33;;;;;;;;;;;15.00;99.90;;;;;;1969258;72;20167;-72
2021/08/10 03:59:01;;;;;;;;;;;15.00;99.90;;;;;;1971905;71;20175;-72
2021/08/10 04:01:28;;;;;;;;;;;15.10;99.90;;;;;;1940569;74;20219;-72
2021/08/10 04:03:56;;;;;;;;;;;15.10;99.90;;;;;;1940304;72;20180;-72
2021/08/10 04:06:24;;;;;;;;;;;15.10;99.90;;;;;;1960792;72;20861;-72
2021/08/10 04:08:52;;;;;;;;;;;15.10;99.90;;;;;;1955072;72;20170;-73
2021/08/10 04:11:20;;;;;;;;;;;15.00;99.90;;;;;;1973242;73;20182;-72
2021/08/10 04:13:47;;;;;;;;;;;15.10;99.90;;;;;;1975095;73;20177;-72
2021/08/10 04:16:14;;;;;;;;;;;15.10;99.90;;;;;;1973540;72;20162;-72
2021/08/10 04:18:42;;;;;;;;;;;15.20;99.90;;;;;;1961648;71;20492;-72
2021/08/10 04:21:09;;;;;;;;;;;15.10;99.90;;;;;;1964864;73;20235;-72
2021/08/10 04:23:36;;;;;;;;;;;15.10;99.90;;;;;;1938860;72;20173;-72
2021/08/10 04:26:03;;;;;;;;;;;15.00;99.90;;;;;;1957445;72;20450;-72
2021/08/10 04:28:29;;;;;;;;;;;15.10;99.90;;;;;;1972700;71;20212;-72
2021/08/10 04:30:56;;;;;;;;;;;15.10;99.90;;;;;;1945690;73;20188;-72
2021/08/10 04:33:23;;;;;;;;;;;15.10;99.90;;;;;;1934701;72;20499;-72
2021/08/10 04:35:50;;;;;;;;;;;15.10;99.90;;;;;;1940595;73;20158;-72
2021/08/10 04:38:17;;;;;;;;;;;15.10;99.90;;;;;;1938078;74;20556;-72
2021/08/10 04:40:43;;;;;;;;;;;15.10;99.90;;;;;;1940748;72;20165;-72
2021/08/10 04:43:10;;;;;;;;;;;14.90;99.90;;;;;;1939122;72;20547;-72
2021/08/10 04:45:37;;;;;;;;;;;15.00;99.90;;;;;;1940707;74;20176;-72
2021/08/10 04:48:04;;;;;;;;;;;15.00;99.90;;;;;;1957820;72;20169;-72
2021/08/10 04:50:31;;;;;;;;;;;15.00;99.90;;;;;;1966546;72;20325;-72
2021/08/10 04:52:57;;;;;;;;;;;14.90;99.90;;;;;;1939217;72;20180;-72
2021/08/10 04:55:24;;;;;;;;;;;14.80;99.90;;;;;;1954007;72;20135;-72
2021/08/10 04:57:51;;;;;;;;;;;14.80;99.90;;;;;;1966119;71;20206;-72
2021/08/10 05:00:18;;;;;;;;;;;14.90;99.90;;;;;;1963346;72;20185;-72
2021/08/10 05:02:45;;;;;;;;;;;14.90;99.90;;;;;;1951109;73;20154;-72
2021/08/10 05:05:12;;;;;;;;;;;15.00;99.90;;;;;;1973521;73;20204;-72
2021/08/10 05:07:39;;;;;;;;;;;15.10;99.90;;;;;;1947595;72;20227;-72
2021/08/10 05:10:06;;;;;;;;;;;15.10;99.90;;;;;;1919430;72;20457;-72
2021/08/10 05:12:35;;;;;;;;;;;15.10;99.90;;;;;;1942195;73;20184;-72
2021/08/10 05:15:02;;;;;;;;;;;15.10;99.90;;;;;;1962293;73;20154;-72
2021/08/10 05:17:28;;;;;;;;;;;15.10;99.90;;;;;;1943487;72;20168;-72
2021/08/10 05:19:55;;;;;;;;;;;15.10;99.90;;;;;;1968116;72;20182;-72
2021/08/10 05:22:22;;;;;;;;;;;15.10;99.90;;;;;;1957554;72;20208;-72
2021/08/10 05:24:49;;;;;;;;;;;15.20;99.90;;;;;;1949417;72;20395;-72
2021/08/10 05:27:16;;;;;;;;;;;15.20;99.90;;;;;;1939208;72;20136;-72
2021/08/10 05:29:42;;;;;;;;;;;15.10;99.90;;;;;;1938527;72;20468;-72
2021/08/10 05:32:09;;;;;;;;;;;15.20;99.90;;;;;;1939223;74;20134;-72
2021/08/10 05:34:38;;;;;;;;;;;15.20;99.90;;;;;;1942399;72;20281;-72
2021/08/10 05:37:05;;;;;;;;;;;15.30;99.90;;;;;;1940608;72;20176;-73
2021/08/10 05:39:32;;;;;;;;;;;15.30;99.90;;;;;;1937642;74;20541;-73
2021/08/10 05:41:59;;;;;;;;;;;15.30;99.90;;;;;;1937638;73;20203;-70
2021/08/10 05:44:26;;;;;;;;;;;15.30;99.90;;;;;;1943299;73;20955;-70
2021/08/10 05:46:54;;;;;;;;;;;15.30;99.90;;;;;;1951531;73;20227;-71
2021/08/10 05:49:21;;;;;;;;;;;15.30;99.90;;;;;;1966496;71;20170;-71
2021/08/10 05:51:48;;;;;;;;;;;15.30;99.90;;;;;;1953814;72;20442;-70
2021/08/10 05:54:15;;;;;;;;;;;15.30;99.90;;;;;;1939238;72;20255;-71
2021/08/10 05:56:42;;;;;;;;;;;15.40;99.90;;;;;;1944611;72;20120;-71
2021/08/10 05:59:09;;;;;;;;;;;15.40;99.90;;;;;;1953032;72;20186;-71
2021/08/10 06:01:37;;;;;;;;;;;15.40;99.90;;;;;;1943966;72;20507;-71
2021/08/10 06:04:05;;;;;;;;;;;15.40;99.90;;;;;;1958388;73;20127;-70
2021/08/10 06:06:34;;;;;;;;;;;15.40;99.90;;;;;;1965537;72;20170;-70
2021/08/10 06:09:04;;;;;;;;;;;15.50;99.90;;;;;;1957728;71;20204;-70
2021/08/10 06:11:31;;;;;;;;;;;15.40;99.90;;;;;;1940000;72;20168;-71
2021/08/10 06:13:58;;;;;;;;;;;15.50;99.90;;;;;;1938427;72;20176;-70
2021/08/10 06:16:25;;;;;;;;;;;15.40;99.90;;;;;;1948862;72;20253;-71
2021/08/10 06:18:52;;;;;;;;;;;15.40;99.90;;;;;;1962479;71;20178;-79
2021/08/10 06:21:18;;;;;;;;;;;15.40;99.90;;;;;;1940443;72;20223;-70
2021/08/10 06:23:45;;;;;;;;;;;15.50;99.90;;;;;;1929521;72;20183;-70
2021/08/10 06:26:12;;;;;;;;;;;15.60;99.90;;;;;;1949014;72;20203;-70
2021/08/10 06:28:39;;;;;;;;;;;15.70;99.90;;;;;;1955649;71;20270;-69
2021/08/10 06:31:06;;;;;;;;;;;15.70;99.90;;;;;;1936833;73;20179;-69
2021/08/10 06:33:33;;;;;;;;;;;15.80;99.90;;;;;;1941199;73;20172;-69
2021/08/10 06:36:00;;;;;;;;;;;15.90;99.90;;;;;;1936200;74;20208;-69
2021/08/10 06:38:27;;;;;;;;;;;16.00;99.90;;;;;;1938890;72;20211;-69
2021/08/10 06:40:54;;;;;;;;;;;16.10;99.90;;;;;;1940196;72;20202;-69
2021/08/10 06:43:20;;;;;;;;;;;16.10;99.90;;;;;;1938109;73;20172;-69
2021/08/10 06:45:47;;;;;;;;;;;16.20;99.90;;;;;;1951733;72;20180;-68
2021/08/10 06:48:14;;;;;;;;;;;16.20;99.90;;;;;;1962973;71;20216;-70
2021/08/10 06:50:41;;;;;;;;;;;16.20;99.90;;;;;;1909233;74;20193;-69
2021/08/10 06:53:08;;;;;;;;;;;16.20;99.90;;;;;;1949337;73;20244;-69
2021/08/10 06:55:34;;;;;;;;;;;16.20;99.90;;;;;;1971150;73;20207;-69
2021/08/10 06:58:01;;;;;;;;;;;16.20;99.90;;;;;;1925533;72;20189;-69
2021/08/10 07:00:28;;;;;;;;;;;16.20;99.90;;;;;;1959237;72;20180;-71
2021/08/10 07:02:55;;;;;;;;;;;16.30;99.90;;;;;;1938290;74;20220;-70
2021/08/10 07:05:22;;;;;;;;;;;16.30;99.90;;;;;;1952423;72;20174;-70
2021/08/10 07:07:48;;;;;;;;;;;16.30;99.90;;;;;;1944898;72;20188;-71
2021/08/10 07:10:15;;;;;;;;;;;16.30;99.90;;;;;;1973244;73;21049;-70
2021/08/10 07:12:42;;;;;;;;;;;16.40;99.90;;;;;;1947886;72;20234;-70
2021/08/10 07:15:09;;;;;;;;;;;16.40;99.90;;;;;;1940416;74;20716;-70
2021/08/10 07:17:36;;;;;;;;;;;16.40;99.90;;;;;;1946777;72;20172;-71
2021/08/10 07:20:03;;;;;;;;;;;16.40;99.90;;;;;;1940895;74;20173;-69
2021/08/10 07:22:30;;;;;;;;;;;16.40;99.90;;;;;;1941701;72;20164;-70
2021/08/10 07:24:57;;;;;;;;;;;16.50;99.90;;;;;;1941099;74;20125;-70
2021/08/10 07:27:24;;;;;;;;;;;16.50;99.90;;;;;;1958605;72;20223;-70
2021/08/10 07:29:50;;;;;;;;;;;16.50;99.90;;;;;;1968481;73;20528;-70
2021/08/10 07:32:17;;;;;;;;;;;16.50;99.90;;;;;;1947849;73;20115;-70
2021/08/10 07:34:44;;;;;;;;;;;16.50;99.90;;;;;;1956153;73;20516;-69
2021/08/10 07:37:11;;;;;;;;;;;16.50;99.90;;;;;;1951196;72;20183;-70
2021/08/10 07:39:38;;;;;;;;;;;16.50;99.90;;;;;;1945467;72;21060;-70
2021/08/10 07:42:04;;;;;;;;;;;16.50;99.90;;;;;;1949637;72;20209;-70
2021/08/10 07:44:31;;;;;;;;;;;16.50;99.90;;;;;;1945431;72;20496;-69
2021/08/10 07:46:58;;;;;;;;;;;16.50;99.90;;;;;;1941660;72;20150;-69
2021/08/10 07:49:25;;;;;;;;;;;16.50;99.90;;;;;;1937564;72;20217;-70
2021/08/10 07:51:52;;;;;;;;;;;16.50;99.90;;;;;;1942566;72;20148;-69
2021/08/10 07:54:19;;;;;;;;;;;16.60;99.90;;;;;;1938766;72;20172;-70
2021/08/10 07:56:46;;;;;;;;;;;16.70;99.90;;;;;;1939385;72;20284;-70
2021/08/10 07:59:13;;;;;;;;;;;16.70;99.90;;;;;;1940362;73;20336;-70
2021/08/10 08:01:40;;;;;;;;;;;16.70;99.90;;;;;;1943525;72;20200;-69
2021/08/10 08:04:06;;;;;;;;;;;16.70;99.90;;;;;;1937848;72;20488;-69
2021/08/10 08:06:33;;;;;;;;;;;16.70;99.90;;;;;;1939549;72;20161;-70
2021/08/10 08:09:00;;;;;;;;;;;16.70;99.90;;;;;;1940219;72;20439;-70
2021/08/10 08:11:27;;;;;;;;;;;16.80;99.90;;;;;;1935004;73;20184;-70
2021/08/10 08:13:54;;;;;;;;;;;16.90;99.90;;;;;;1936696;73;20248;-70
2021/08/10 08:16:21;;;;;;;;;;;16.90;99.90;;;;;;1939105;72;21232;-70
2021/08/10 08:18:48;;;;;;;;;;;16.90;99.90;;;;;;1939636;72;20162;-70
2021/08/10 08:21:14;;;;;;;;;;;17.00;99.90;;;;;;1940398;73;21147;-70
2021/08/10 08:23:41;;;;;;;;;;;17.00;99.90;;;;;;1945545;73;20176;-70
2021/08/10 08:26:08;;;;;;;;;;;17.10;99.90;;;;;;1936548;73;20165;-70
2021/08/10 08:28:35;;;;;;;;;;;17.10;99.90;;;;;;1940956;73;20180;-70
2021/08/10 08:31:02;;;;;;;;;;;17.20;99.90;;;;;;1941233;72;20208;-70
2021/08/10 08:33:29;;;;;;;;;;;17.30;99.90;;;;;;1941758;73;20453;-69
2021/08/10 08:35:56;;;;;;;;;;;17.30;99.90;;;;;;1941073;73;20216;-71
2021/08/10 08:38:23;;;;;;;;;;;17.40;99.90;;;;;;1942057;73;20197;-70
2021/08/10 08:40:50;;;;;;;;;;;17.40;99.90;;;;;;1941604;73;20223;-70
2021/08/10 08:43:17;;;;;;;;;;;17.50;99.90;;;;;;1940565;73;20240;-69
2021/08/10 08:45:44;;;;;;;;;;;17.50;99.90;;;;;;1943378;72;20208;-69
2021/08/10 08:48:13;;;;;;;;;;;17.50;99.90;;;;;;1941715;72;21375;-70
2021/08/10 08:50:40;;;;;;;;;;;17.50;99.90;;;;;;1934743;72;20172;-69
2021/08/10 08:53:26;;;;;;;;;;;17.50;99.90;;;;;;1937835;73;20197;-75
2021/08/10 08:55:53;;;;;;;;;;;17.50;99.90;;;;;;1877343;75;20158;-71
2021/08/10 08:58:22;;;;;;;;;;;17.50;99.90;;;;;;1876842;75;20180;-71
2021/08/10 09:00:48;;;;;;;;;;;17.50;99.90;;;;;;1871860;75;20256;-71
2021/08/10 09:03:15;;;;;;;;;;;17.50;99.90;;;;;;1871250;75;20592;-69
2021/08/10 09:05:46;;;;;;;;;;;17.50;99.90;;;;;;1873360;75;20264;-70
2021/08/10 09:08:29;;;;;;;;;;;17.50;99.90;;;;;;1869397;75;20243;-69
2021/08/10 09:10:58;;;;;;;;;;;17.60;99.90;;;;;;1806593;75;20541;-70
2021/08/10 09:13:25;;;;;;;;;;;17.60;99.90;;;;;;1875886;75;20118;-70
2021/08/10 09:15:52;;;;;;;;;;;17.70;99.90;;;;;;1876324;75;20192;-69
2021/08/10 09:18:20;;;;;;;;;;;17.60;99.90;;;;;;1872178;75;20219;-69
2021/08/10 09:21:03;;;;;;;;;;;17.60;99.90;;;;;;1869708;75;20572;-69
2021/08/10 09:23:45;;;;;;;;;;;17.60;99.90;;;;;;1870679;75;20621;-70
2021/08/10 09:26:13;;;;;;;;;;;17.70;99.90;;;;;;1869287;75;20177;-70
2021/08/10 09:28:40;;;;;;;;;;;17.70;99.90;;;;;;1870171;75;20212;-70
2021/08/10 09:31:24;;;;;;;;;;;17.80;99.90;;;;;;1869758;75;20588;-69
2021/08/10 09:33:51;;;;;;;;;;;18.00;99.90;;;;;;1872408;75;20217;-70
2021/08/10 09:36:21;;;;;;;;;;;18.10;99.90;;;;;;1873794;75;20517;-70
2021/08/10 09:38:48;;;;;;;;;;;18.20;99.90;;;;;;1873703;75;20222;-70
2021/08/10 09:41:15;;;;;;;;;;;18.20;99.90;;;;;;1872061;75;20290;-70
2021/08/10 09:43:42;;;;;;;;;;;18.20;99.90;;;;;;1866436;75;20551;-70
2021/08/10 09:46:10;;;;;;;;;;;18.20;99.90;;;;;;1873473;75;20181;-70
2021/08/10 09:48:38;;;;;;;;;;;18.00;99.90;;;;;;1873033;75;21060;-70
2021/08/10 09:51:06;;;;;;;;;;;17.90;99.90;;;;;;1871656;75;20241;-70
2021/08/10 09:53:33;;;;;;;;;;;17.70;99.90;;;;;;1870160;75;20179;-70
2021/08/10 09:55:59;;;;;;;;;;;17.70;99.90;;;;;;1871973;75;20306;-70
2021/08/10 09:58:26;;;;;;;;;;;17.60;99.90;;;;;;1870309;75;20234;-71
2021/08/10 10:00:55;;;;;;;;;;;17.60;99.90;;;;;;1875331;75;20215;-70
2021/08/10 10:03:22;;;;;;;;;;;17.50;99.90;;;;;;1884556;75;20203;-70
2021/08/10 10:05:49;;;;;;;;;;;17.40;99.90;;;;;;1871106;75;20118;-70
2021/08/10 10:08:18;;;;;;;;;;;17.20;99.90;;;;;;1869465;75;20328;-70
2021/08/10 10:10:45;;;;;;;;;;;17.10;99.90;;;;;;1872496;75;20174;-70
2021/08/10 10:13:13;;;;;;;;;;;17.00;99.90;;;;;;1871422;75;20110;-69
2021/08/10 10:15:41;;;;;;;;;;;17.10;99.90;;;;;;1869695;74;20162;-70
2021/08/10 10:18:08;;;;;;;;;;;17.30;99.90;;;;;;1870671;75;20120;-70
2021/08/10 10:20:35;;;;;;;;;;;17.50;99.90;;;;;;1870868;75;20203;-70
2021/08/10 10:23:03;;;;;;;;;;;17.80;99.90;;;;;;1873461;75;20188;-70
2021/08/10 10:25:32;;;;;;;;;;;18.00;99.90;;;;;;1873157;75;20125;-70
2021/08/10 10:27:59;;;;;;;;;;;18.10;99.90;;;;;;1870159;75;20176;-70
2021/08/10 10:30:28;;;;;;;;;;;18.30;99.90;;;;;;1873636;75;20129;-70
2021/08/10 10:32:55;;;;;;;;;;;18.50;99.90;;;;;;1870387;74;20226;-70
2021/08/10 10:35:22;;;;;;;;;;;18.60;99.90;;;;;;1873467;75;20236;-71
2021/08/10 10:37:50;;;;;;;;;;;18.60;99.90;;;;;;1872637;75;20221;-71
2021/08/10 10:40:18;;;;;;;;;;;18.60;99.90;;;;;;1870803;75;20216;-70
2021/08/10 10:42:55;;;;;;;;;;;18.80;99.90;;;;;;1871968;75;21089;-70
2021/08/10 10:45:35;;;;;;;;;;;18.90;99.90;;;;;;1869425;75;20198;-70
2021/08/10 10:48:02;;;;;;;;;;;19.10;99.90;;;;;;1873083;75;20224;-71
2021/08/10 10:50:28;;;;;;;;;;;19.20;99.90;;;;;;1869263;75;20269;-72
2021/08/10 10:53:06;;;;;;;;;;;19.40;99.90;;;;;;1873936;75;20188;-72
2021/08/10 10:55:40;;;;;;;;;;;19.40;99.90;;;;;;1871317;75;20124;-71
2021/08/10 10:58:27;;;;;;;;;;;19.50;99.90;;;;;;1872493;75;20248;-72
2021/08/10 11:01:10;;;;;;;;;;;19.60;99.90;;;;;;1867505;75;20180;-72
2021/08/10 11:03:37;;;;;;;;;;;19.70;99.90;;;;;;1875098;75;20141;-72
2021/08/10 11:06:21;;;;;;;;;;;19.80;99.90;;;;;;1870092;75;20176;-72
2021/08/10 11:08:48;;;;;;;;;;;19.80;99.90;;;;;;1876941;75;20110;-73
2021/08/10 11:11:33;;;;;;;;;;;19.60;99.90;;;;;;1875414;75;20188;-73
2021/08/10 11:14:00;;;;;;;;;;;19.50;99.90;;;;;;1871461;75;20114;-74
2021/08/10 11:16:27;;;;;;;;;;;19.40;99.90;;;;;;1890928;75;20106;-72
2021/08/10 11:18:55;;;;;;;;;;;19.50;99.90;;;;;;1869679;75;20133;-72
2021/08/10 11:21:24;;;;;;;;;;;19.40;99.90;;;;;;1873081;75;20121;-72
2021/08/10 11:23:51;;;;;;;;;;;19.40;99.90;;;;;;1870287;75;20133;-72
2021/08/10 11:26:22;;;;;;;;;;;19.30;99.90;;;;;;1887910;75;20397;-72
2021/08/10 11:28:50;;;;;;;;;;;19.20;99.90;;;;;;1870856;76;20296;-73
2021/08/10 11:31:35;;;;;;;;;;;19.20;99.90;;;;;;1869323;75;20496;-70
2021/08/10 11:34:03;;;;;;;;;;;19.20;99.90;;;;;;1874269;75;20170;-69
2021/08/10 11:36:30;;;;;;;;;;;19.10;99.90;;;;;;1869944;75;20165;-71
2021/08/10 11:39:05;;;;;;;;;;;19.20;99.90;;;;;;1869706;77;20161;-72
2021/08/10 11:41:33;;;;;;;;;;;19.10;99.90;;;;;;1875967;75;20505;-72
2021/08/10 11:44:01;;;;;;;;;;;19.10;99.90;;;;;;1878745;75;20170;-73
2021/08/10 11:46:29;;;;;;;;;;;19.00;99.90;;;;;;1874264;75;20205;-73
2021/08/10 11:49:00;;;;;;;;;;;18.90;99.90;;;;;;1871123;75;20184;-73
2021/08/10 11:51:30;;;;;;;;;;;18.80;99.90;;;;;;1870222;75;20220;-71
2021/08/10 11:53:58;;;;;;;;;;;18.80;99.90;;;;;;1868879;75;20141;-71
2021/08/10 11:56:30;;;;;;;;;;;18.80;99.90;;;;;;1873855;75;20170;-71
2021/08/10 11:58:57;;;;;;;;;;;18.80;99.90;;;;;;1870428;75;20163;-73
2021/08/10 12:01:25;;;;;;;;;;;18.70;99.90;;;;;;1867009;75;20239;-72
2021/08/10 12:03:52;;;;;;;;;;;18.70;99.90;;;;;;1873235;75;20110;-72
2021/08/10 12:06:27;;;;;;;;;;;18.80;99.90;;;;;;1872395;75;20175;-72
2021/08/10 12:08:55;;;;;;;;;;;18.80;99.90;;;;;;1873005;75;20149;-73
2021/08/10 12:11:24;;;;;;;;;;;18.80;99.90;;;;;;1884081;75;20169;-73
2021/08/10 12:13:51;;;;;;;;;;;18.90;99.90;;;;;;1870276;75;20215;-73
2021/08/10 12:16:17;;;;;;;;;;;19.10;99.90;;;;;;1872331;75;20180;-72
2021/08/10 12:18:48;;;;;;;;;;;19.10;99.90;;;;;;1881780;75;20111;-72
2021/08/10 12:21:16;;;;;;;;;;;19.30;99.90;;;;;;1898966;75;20171;-72
2021/08/10 12:23:44;;;;;;;;;;;19.30;99.90;;;;;;1870327;75;20225;-73
2021/08/10 12:26:13;;;;;;;;;;;19.20;99.90;;;;;;1873914;75;20311;-73
2021/08/10 12:29:00;;;;;;;;;;;19.30;99.90;;;;;;1866936;75;20210;-73
2021/08/10 12:31:28;;;;;;;;;;;19.50;99.90;;;;;;1881523;75;20454;-73
2021/08/10 12:33:56;;;;;;;;;;;19.40;99.90;;;;;;1872267;75;20212;-73
2021/08/10 12:36:23;;;;;;;;;;;19.30;99.90;;;;;;1872782;75;20238;-73
2021/08/10 12:38:51;;;;;;;;;;;19.40;99.90;;;;;;1871412;75;20176;-73
2021/08/10 12:41:19;;;;;;;;;;;19.30;99.90;;;;;;1872583;75;20225;-73
2021/08/10 12:43:50;;;;;;;;;;;19.20;99.90;;;;;;1885951;75;20186;-73
2021/08/10 12:46:36;;;;;;;;;;;19.30;99.90;;;;;;1880068;74;20231;-72
2021/08/10 12:49:08;;;;;;;;;;;19.20;99.90;;;;;;1900947;74;20152;-72
2021/08/10 12:51:54;;;;;;;;;;;19.10;99.90;;;;;;1932125;74;20151;-73
2021/08/10 12:54:21;;;;;;;;;;;19.10;99.90;;;;;;1915574;74;20293;-73
2021/08/10 12:56:48;;;;;;;;;;;19.00;99.90;;;;;;1946622;73;20278;-72
2021/08/10 12:59:16;;;;;;;;;;;18.90;99.90;;;;;;1945263;72;20186;-73
2021/08/10 13:01:44;;;;;;;;;;;18.80;99.90;;;;;;1932025;72;20155;-73
2021/08/10 13:04:11;;;;;;;;;;;18.70;99.90;;;;;;1929752;74;20584;-73
2021/08/10 13:06:38;;;;;;;;;;;18.70;99.90;;;;;;1934787;74;20662;-71
2021/08/10 13:09:10;;;;;;;;;;;18.60;99.90;;;;;;1931597;72;20176;-73
2021/08/10 13:11:35;;;;;;;;;;;18.50;99.90;;;;;;1935286;73;20208;-75
2021/08/10 13:14:05;;;;;;;;;;;18.40;99.90;;;;;;1935286;74;20156;-72
2021/08/10 13:16:33;;;;;;;;;;;18.30;99.90;;;;;;1934410;73;20465;-73
2021/08/10 13:19:14;;;;;;;;;;;18.10;99.90;;;;;;1936509;72;20173;-73
2021/08/10 13:21:48;;;;;;;;;;;18.00;99.90;;;;;;1886025;74;20229;-73
2021/08/10 13:24:18;;;;;;;;;;;17.80;99.90;;;;;;1890066;74;20222;-72
2021/08/10 13:26:47;;;;;;;;;;;17.80;99.90;;;;;;1885417;74;20244;-73
2021/08/10 13:29:14;;;;;;;;;;;17.80;99.90;;;;;;1891646;74;20791;-72
2021/08/10 13:31:48;;;;;;;;;;;17.70;99.90;;;;;;1884909;76;20201;-73
2021/08/10 13:34:15;;;;;;;;;;;17.70;99.90;;;;;;1872737;73;20227;-75
2021/08/10 13:36:41;;;;;;;;;;;17.70;99.90;;;;;;1896316;74;20212;-76
2021/08/10 13:39:10;;;;;;;;;;;17.70;99.90;;;;;;1906003;74;20172;-75
2021/08/10 13:41:40;;;;;;;;;;;17.60;99.90;;;;;;1912263;74;20167;-75
2021/08/10 13:44:06;;;;;;;;;;;17.50;99.90;;;;;;1848877;76;20191;-74
2021/08/10 13:46:33;;;;;;;;;;;17.50;99.90;;;;;;1907831;74;20209;-75
2021/08/10 13:49:01;;;;;;;;;;;17.40;99.90;;;;;;1905108;74;20504;-74
2021/08/10 13:51:28;;;;;;;;;;;17.40;99.90;;;;;;1905637;74;20462;-75
2021/08/10 13:53:55;;;;;;;;;;;17.30;99.90;;;;;;1878623;75;20586;-74
2021/08/10 13:56:22;;;;;;;;;;;17.30;99.90;;;;;;1876014;76;20156;-75
2021/08/10 13:58:48;;;;;;;;;;;17.30;99.90;;;;;;1890372;75;20603;-74
2021/08/10 14:01:31;;;;;;;;;;;17.40;99.90;;;;;;1886013;75;20136;-74
2021/08/10 14:03:50;;;;;;;;;;;17.60;99.90;;;;;;1888538;75;20166;-74
2021/08/10 14:06:16;;;;;;;;;;;17.70;99.90;;;;;;1891240;74;20110;-75
2021/08/10 14:08:47;;;;;;;;;;;17.70;99.90;;;;;;1890751;76;20185;-76
2021/08/10 14:11:12;;;;;;;;;;;17.70;99.90;;;;;;1889457;76;20156;-74
2021/08/10 14:13:39;;;;;;;;;;;17.60;99.90;;;;;;1886692;76;20957;-73
2021/08/10 14:16:05;;;;;;;;;;;17.60;99.90;;;;;;1889181;74;20206;-76
2021/08/10 14:18:32;;;;;;;;;;;17.60;99.90;;;;;;1889616;74;20240;-74
2021/08/10 14:20:59;;;;;;;;;;;17.50;99.90;;;;;;1904451;74;20233;-73
2021/08/10 14:23:26;;;;;;;;;;;17.50;99.90;;;;;;1889627;74;20966;-73